createdAt,value
2017-02-20T00:00:54.011Z,7.34
2017-02-20T00:01:54.029Z,7.39
2017-02-20T00:02:54.004Z,7.39
2017-02-20T00:03:53.994Z,7.37
2017-02-20T00:04:53.977Z,7.42
2017-02-20T00:05:53.963Z,7.37
2017-02-20T00:06:53.967Z,7.43
2017-02-20T00:07:53.952Z,7.34
2017-02-20T00:08:53.923Z,7.3
2017-02-20T00:09:53.925Z,7.39
2017-02-20T00:10:53.915Z,7.43
2017-02-20T00:11:53.911Z,7.31
2017-02-20T00:12:53.914Z,7.4
2017-02-20T00:13:53.882Z,7.37
2017-02-20T00:14:53.891Z,7.4
2017-02-20T00:15:53.862Z,7.4
2017-02-20T00:16:53.851Z,7.4
2017-02-20T00:17:53.843Z,7.39
2017-02-20T00:18:53.829Z,7.39
2017-02-20T00:19:53.822Z,7.39
2017-02-20T00:20:53.818Z,7.42
2017-02-20T00:21:53.794Z,7.42
2017-02-20T00:22:53.804Z,7.39
2017-02-20T00:23:53.802Z,7.4
2017-02-20T00:24:53.762Z,7.43
2017-02-20T00:25:53.775Z,7.35
2017-02-20T00:26:53.755Z,7.28
2017-02-20T00:27:53.731Z,7.35
2017-02-20T00:28:53.712Z,7.39
2017-02-20T00:29:53.725Z,7.37
2017-02-20T00:30:53.701Z,7.4
2017-02-20T00:31:53.707Z,7.42
2017-02-20T00:32:53.695Z,7.43
2017-02-20T00:33:53.668Z,7.43
2017-02-20T00:34:53.673Z,7.48
2017-02-20T00:35:53.659Z,7.46
2017-02-20T00:36:53.637Z,7.49
2017-02-20T00:37:53.633Z,7.42
2017-02-20T00:38:53.616Z,7.53
2017-02-20T00:39:53.629Z,7.43
2017-02-20T00:40:53.593Z,7.49
2017-02-20T00:41:53.593Z,7.37
2017-02-20T00:42:53.589Z,7.42
2017-02-20T00:43:53.554Z,7.58
2017-02-20T00:44:53.552Z,7.49
2017-02-20T00:45:53.542Z,7.52
2017-02-20T00:46:53.544Z,7.4
2017-02-20T00:47:53.527Z,7.43
2017-02-20T00:48:53.510Z,7.5
2017-02-20T00:49:53.520Z,7.37
2017-02-20T00:50:53.499Z,7.48
2017-02-20T00:51:53.506Z,7.45
2017-02-20T00:52:53.504Z,7.42
2017-02-20T00:53:53.480Z,7.53
2017-02-20T00:54:53.454Z,7.35
2017-02-20T00:55:53.442Z,7.46
2017-02-20T00:56:53.420Z,7.48
2017-02-20T00:57:53.416Z,7.4
2017-02-20T00:58:53.405Z,7.52
2017-02-20T00:59:53.441Z,7.48
2017-02-20T01:00:53.388Z,7.53
2017-02-20T01:01:53.396Z,7.58
2017-02-20T01:02:53.393Z,7.48
2017-02-20T01:03:53.348Z,7.49
2017-02-20T01:04:53.353Z,7.48
2017-02-20T01:05:53.355Z,7.5
2017-02-20T01:06:53.328Z,7.58
2017-02-20T01:07:53.325Z,7.49
2017-02-20T01:08:53.300Z,7.52
2017-02-20T01:09:53.283Z,7.53
2017-02-20T01:10:53.292Z,7.5
2017-02-20T01:11:53.313Z,7.57
2017-02-20T01:12:53.269Z,7.52
2017-02-20T01:13:53.265Z,7.53
2017-02-20T01:14:53.255Z,7.6
2017-02-20T01:15:53.243Z,7.57
2017-02-20T01:16:53.217Z,7.43
2017-02-20T01:17:53.206Z,7.53
2017-02-20T01:18:53.207Z,7.49
2017-02-20T01:19:53.187Z,7.43
2017-02-20T01:20:53.182Z,7.43
2017-02-20T01:21:53.173Z,7.58
2017-02-20T01:22:53.152Z,7.45
2017-02-20T01:23:53.137Z,7.45
2017-02-20T01:24:53.138Z,7.42
2017-02-20T01:25:53.121Z,7.48
2017-02-20T01:26:53.102Z,7.42
2017-02-20T01:27:53.111Z,7.5
2017-02-20T01:28:53.087Z,7.57
2017-02-20T01:29:53.084Z,7.42
2017-02-20T01:30:53.075Z,7.55
2017-02-20T01:31:53.068Z,7.48
2017-02-20T01:32:53.060Z,7.49
2017-02-20T01:33:53.043Z,7.49
2017-02-20T01:34:53.035Z,7.48
2017-02-20T01:35:53.034Z,7.55
2017-02-20T01:36:53.026Z,7.52
2017-02-20T01:37:53.001Z,7.48
2017-02-20T01:38:52.993Z,7.49
2017-02-20T01:39:53.009Z,7.45
2017-02-20T01:40:52.965Z,7.43
2017-02-20T01:41:52.955Z,7.42
2017-02-20T01:42:52.945Z,7.52
2017-02-20T01:43:52.928Z,7.48
2017-02-20T01:44:52.928Z,7.58
2017-02-20T01:45:52.915Z,7.46
2017-02-20T01:46:52.913Z,7.43
2017-02-20T01:47:52.905Z,7.43
2017-02-20T01:48:52.872Z,7.32
2017-02-20T01:49:52.887Z,7.43
2017-02-20T01:50:52.865Z,7.39
2017-02-20T01:51:52.873Z,7.43
2017-02-20T01:52:52.845Z,7.46
2017-02-20T01:53:52.833Z,7.34
2017-02-20T01:54:52.822Z,7.35
2017-02-20T01:55:52.834Z,7.39
2017-02-20T01:56:52.817Z,7.35
2017-02-20T01:57:52.781Z,7.4
2017-02-20T01:58:52.785Z,7.39
2017-02-20T01:59:52.784Z,7.37
2017-02-20T02:00:52.756Z,7.43
2017-02-20T02:01:52.753Z,7.4
2017-02-20T02:02:52.740Z,7.35
2017-02-20T02:03:52.724Z,7.45
2017-02-20T02:04:52.745Z,7.34
2017-02-20T02:05:52.320Z,7.39
2017-02-20T02:06:52.710Z,7.35
2017-02-20T02:07:52.683Z,7.42
2017-02-20T02:08:52.692Z,7.4
2017-02-20T02:09:52.660Z,7.4
2017-02-20T02:10:52.652Z,7.4
2017-02-20T02:11:52.655Z,7.31
2017-02-20T02:12:52.651Z,7.39
2017-02-20T02:13:52.631Z,7.32
2017-02-20T02:14:52.612Z,7.3
2017-02-20T02:15:52.226Z,7.37
2017-02-20T02:16:52.204Z,7.24
2017-02-20T02:17:52.587Z,7.27
2017-02-20T02:18:52.595Z,7.25
2017-02-20T02:19:52.561Z,7.16
2017-02-20T02:20:52.550Z,7.24
2017-02-20T02:21:52.538Z,7.2
2017-02-20T02:22:52.528Z,7.12
2017-02-20T02:23:52.522Z,7.13
2017-02-20T02:24:52.502Z,7.15
2017-02-20T02:25:52.495Z,7.07
2017-02-20T02:26:52.478Z,7.06
2017-02-20T02:27:52.769Z,7.09
2017-02-20T02:28:52.472Z,7.05
2017-02-20T02:29:52.455Z,7.1
2017-02-20T02:30:52.428Z,7.09
2017-02-20T02:31:52.426Z,7.12
2017-02-20T02:32:52.416Z,7.09
2017-02-20T02:33:52.414Z,7.07
2017-02-20T02:34:52.389Z,7.09
2017-02-20T02:35:52.390Z,7.09
2017-02-20T02:36:52.381Z,7.07
2017-02-20T02:37:52.359Z,7.07
2017-02-20T02:38:52.365Z,7.06
2017-02-20T02:39:52.329Z,7.13
2017-02-20T02:40:52.337Z,7.09
2017-02-20T02:41:52.318Z,6.99
2017-02-20T02:42:52.308Z,7.1
2017-02-20T02:43:52.291Z,7.1
2017-02-20T02:44:52.296Z,7.12
2017-02-20T02:45:52.304Z,7.05
2017-02-20T02:46:52.273Z,7.13
2017-02-20T02:47:52.273Z,7.12
2017-02-20T02:48:52.254Z,7.15
2017-02-20T02:49:52.238Z,7.13
2017-02-20T02:50:52.219Z,7.17
2017-02-20T02:51:52.218Z,7.13
2017-02-20T02:52:52.206Z,7.15
2017-02-20T02:53:52.179Z,7.15
2017-02-20T02:54:52.202Z,7.13
2017-02-20T02:55:52.189Z,7.17
2017-02-20T02:56:52.168Z,7.13
2017-02-20T02:57:52.159Z,7.23
2017-02-20T02:58:52.167Z,7.17
2017-02-20T02:59:51.746Z,7.2
2017-02-20T03:00:52.115Z,7.25
2017-02-20T03:01:52.145Z,7.3
2017-02-20T03:02:52.103Z,7.2
2017-02-20T03:03:52.081Z,7.23
2017-02-20T03:04:52.078Z,7.24
2017-02-20T03:05:52.063Z,7.31
2017-02-20T03:06:52.040Z,7.28
2017-02-20T03:07:52.047Z,7.31
2017-02-20T03:08:52.057Z,7.31
2017-02-20T03:09:52.039Z,7.3
2017-02-20T03:10:52.015Z,7.35
2017-02-20T03:11:52.003Z,7.4
2017-02-20T03:12:51.606Z,7.28
2017-02-20T03:13:51.971Z,7.4
2017-02-20T03:14:51.978Z,7.39
2017-02-20T03:15:51.965Z,7.48
2017-02-20T03:16:51.952Z,7.46
2017-02-20T03:17:51.945Z,7.5
2017-02-20T03:18:51.929Z,7.49
2017-02-20T03:19:51.917Z,7.46
2017-02-20T03:20:51.899Z,7.43
2017-02-20T03:21:51.889Z,7.48
2017-02-20T03:22:51.887Z,7.39
2017-02-20T03:23:51.875Z,7.46
2017-02-20T03:24:51.853Z,7.45
2017-02-20T03:25:51.861Z,7.39
2017-02-20T03:26:51.835Z,7.49
2017-02-20T03:27:51.826Z,7.53
2017-02-20T03:28:51.832Z,7.53
2017-02-20T03:29:51.818Z,7.37
2017-02-20T03:30:51.800Z,7.58
2017-02-20T03:31:51.818Z,7.52
2017-02-20T03:32:51.785Z,7.52
2017-02-20T03:33:51.770Z,7.5
2017-02-20T03:34:51.763Z,7.5
2017-02-20T03:35:51.755Z,7.52
2017-02-20T03:36:51.727Z,7.49
2017-02-20T03:37:51.756Z,7.58
2017-02-20T03:38:51.705Z,7.57
2017-02-20T03:39:51.707Z,7.46
2017-02-20T03:40:51.687Z,7.46
2017-02-20T03:41:51.688Z,7.49
2017-02-20T03:42:51.671Z,7.46
2017-02-20T03:43:51.673Z,7.57
2017-02-20T03:44:51.649Z,7.5
2017-02-20T03:45:51.634Z,7.49
2017-02-20T03:46:51.640Z,7.58
2017-02-20T03:47:51.608Z,7.6
2017-02-20T03:48:51.606Z,7.5
2017-02-20T03:49:51.589Z,7.58
2017-02-20T03:50:51.580Z,7.58
2017-02-20T03:51:51.572Z,7.55
2017-02-20T03:52:51.568Z,7.67
2017-02-20T03:53:51.572Z,7.67
2017-02-20T03:54:51.155Z,7.53
2017-02-20T03:55:51.532Z,7.57
2017-02-20T03:56:51.524Z,7.5
2017-02-20T03:57:51.511Z,7.49
2017-02-20T03:58:51.507Z,7.55
2017-02-20T03:59:51.488Z,7.58
2017-02-20T04:00:51.484Z,7.52
2017-02-20T04:01:51.480Z,7.6
2017-02-20T04:02:51.458Z,7.55
2017-02-20T04:03:51.454Z,7.61
2017-02-20T04:04:51.433Z,7.55
2017-02-20T04:05:51.442Z,7.53
2017-02-20T04:06:51.432Z,7.58
2017-02-20T04:07:51.430Z,7.55
2017-02-20T04:08:51.393Z,7.57
2017-02-20T04:09:51.390Z,7.57
2017-02-20T04:10:51.391Z,7.55
2017-02-20T04:11:51.366Z,7.58
2017-02-20T04:12:51.357Z,7.55
2017-02-20T04:13:51.339Z,7.57
2017-02-20T04:14:51.358Z,7.48
2017-02-20T04:15:51.329Z,7.63
2017-02-20T04:16:51.317Z,7.5
2017-02-20T04:17:51.296Z,7.52
2017-02-20T04:18:51.310Z,7.55
2017-02-20T04:19:51.286Z,7.53
2017-02-20T04:20:51.285Z,7.63
2017-02-20T04:21:50.868Z,7.57
2017-02-20T04:22:51.252Z,7.57
2017-02-20T04:23:51.235Z,7.49
2017-02-20T04:24:51.228Z,7.55
2017-02-20T04:25:51.229Z,7.46
2017-02-20T04:26:51.213Z,7.5
2017-02-20T04:27:51.217Z,7.43
2017-02-20T04:28:51.196Z,7.55
2017-02-20T04:29:51.183Z,7.49
2017-02-20T04:30:51.167Z,7.53
2017-02-20T04:31:51.157Z,7.53
2017-02-20T04:32:51.148Z,7.53
2017-02-20T04:33:51.145Z,7.45
2017-02-20T04:34:51.130Z,7.48
2017-02-20T04:35:51.135Z,7.42
2017-02-20T04:36:51.116Z,7.46
2017-02-20T04:37:51.112Z,7.43
2017-02-20T04:38:51.094Z,7.49
2017-02-20T04:39:51.075Z,7.49
2017-02-20T04:40:51.058Z,7.43
2017-02-20T04:41:51.054Z,7.43
2017-02-20T04:42:51.063Z,7.42
2017-02-20T04:43:51.027Z,7.39
2017-02-20T04:44:51.031Z,7.43
2017-02-20T04:45:51.012Z,7.46
2017-02-20T04:46:51.009Z,7.46
2017-02-20T04:47:51.002Z,7.42
2017-02-20T04:48:50.993Z,7.46
2017-02-20T04:49:50.978Z,7.43
2017-02-20T04:50:50.982Z,7.43
2017-02-20T04:51:50.961Z,7.45
2017-02-20T04:52:50.931Z,7.43
2017-02-20T04:53:50.928Z,7.39
2017-02-20T04:54:50.930Z,7.28
2017-02-20T04:55:50.922Z,7.4
2017-02-20T04:56:50.893Z,7.39
2017-02-20T04:57:50.896Z,7.4
2017-02-20T04:58:50.893Z,7.4
2017-02-20T04:59:50.863Z,7.42
2017-02-20T05:00:50.856Z,7.4
2017-02-20T05:01:50.846Z,7.43
2017-02-20T05:02:50.835Z,7.4
2017-02-20T05:03:50.834Z,7.43
2017-02-20T05:04:50.815Z,7.5
2017-02-20T05:05:50.807Z,7.45
2017-02-20T05:06:50.788Z,7.46
2017-02-20T05:07:50.788Z,7.45
2017-02-20T05:08:50.766Z,7.43
2017-02-20T05:09:50.802Z,7.32
2017-02-20T05:10:50.747Z,7.39
2017-02-20T05:11:50.742Z,7.4
2017-02-20T05:12:50.720Z,7.39
2017-02-20T05:13:50.718Z,7.4
2017-02-20T05:14:50.716Z,7.42
2017-02-20T05:15:50.688Z,7.37
2017-02-20T05:16:50.694Z,7.37
2017-02-20T05:17:50.665Z,7.4
2017-02-20T05:18:50.672Z,7.4
2017-02-20T05:19:50.654Z,7.31
2017-02-20T05:20:50.249Z,7.25
2017-02-20T05:21:50.640Z,7.37
2017-02-20T05:22:50.626Z,7.27
2017-02-20T05:23:50.611Z,7.27
2017-02-20T05:24:50.605Z,7.28
2017-02-20T05:25:50.599Z,7.37
2017-02-20T05:26:50.571Z,7.4
2017-02-20T05:27:50.559Z,7.37
2017-02-20T05:28:50.552Z,7.31
2017-02-20T05:29:50.540Z,7.4
2017-02-20T05:30:50.533Z,7.28
2017-02-20T05:31:50.515Z,7.4
2017-02-20T05:32:50.122Z,7.34
2017-02-20T05:33:50.507Z,7.43
2017-02-20T05:34:50.491Z,7.31
2017-02-20T05:35:50.480Z,7.28
2017-02-20T05:36:50.473Z,7.3
2017-02-20T05:37:50.461Z,7.28
2017-02-20T05:38:50.699Z,7.39
2017-02-20T05:39:50.444Z,7.45
2017-02-20T05:40:50.476Z,7.4
2017-02-20T05:41:50.429Z,7.53
2017-02-20T05:42:50.410Z,7.45
2017-02-20T05:43:50.397Z,7.58
2017-02-20T05:44:50.393Z,7.5
2017-02-20T05:45:50.384Z,7.63
2017-02-20T05:46:50.369Z,7.49
2017-02-20T05:47:50.355Z,7.46
2017-02-20T05:48:50.336Z,7.57
2017-02-20T05:49:50.329Z,7.57
2017-02-20T05:50:50.326Z,7.43
2017-02-20T05:51:50.330Z,7.46
2017-02-20T05:52:50.310Z,7.52
2017-02-20T05:53:50.305Z,7.49
2017-02-20T05:54:50.290Z,7.42
2017-02-20T05:55:50.270Z,7.48
2017-02-20T05:56:50.291Z,7.43
2017-02-20T05:57:50.258Z,7.46
2017-02-20T05:58:50.253Z,7.48
2017-02-20T05:59:50.243Z,7.46
2017-02-20T06:00:50.237Z,7.46
2017-02-20T06:01:50.205Z,7.43
2017-02-20T06:02:50.204Z,7.43
2017-02-20T06:03:50.195Z,7.53
2017-02-20T06:04:50.177Z,7.52
2017-02-20T06:05:50.166Z,7.52
2017-02-20T06:06:50.161Z,7.52
2017-02-20T06:07:50.160Z,7.45
2017-02-20T06:08:50.140Z,7.45
2017-02-20T06:09:50.120Z,7.52
2017-02-20T06:10:50.117Z,7.53
2017-02-20T06:11:50.108Z,7.49
2017-02-20T06:12:50.101Z,7.4
2017-02-20T06:13:50.087Z,7.53
2017-02-20T06:14:50.125Z,7.52
2017-02-20T06:15:50.056Z,7.48
2017-02-20T06:16:50.047Z,7.48
2017-02-20T06:17:50.045Z,7.45
2017-02-20T06:18:50.034Z,7.53
2017-02-20T06:19:50.022Z,7.4
2017-02-20T06:20:50.015Z,7.53
2017-02-20T06:21:49.999Z,7.48
2017-02-20T06:22:49.984Z,7.52
2017-02-20T06:23:49.985Z,7.48
2017-02-20T06:24:49.983Z,7.46
2017-02-20T06:25:49.953Z,7.67
2017-02-20T06:26:49.957Z,7.55
2017-02-20T06:27:49.930Z,7.55
2017-02-20T06:28:49.921Z,7.58
2017-02-20T06:29:49.919Z,7.6
2017-02-20T06:30:49.896Z,7.58
2017-02-20T06:31:49.891Z,7.6
2017-02-20T06:32:49.898Z,7.52
2017-02-20T06:33:49.871Z,7.58
2017-02-20T06:34:49.865Z,7.69
2017-02-20T06:35:49.850Z,7.75
2017-02-20T06:36:49.839Z,7.64
2017-02-20T06:37:49.842Z,7.69
2017-02-20T06:38:49.820Z,7.69
2017-02-20T06:39:49.821Z,7.67
2017-02-20T06:40:49.795Z,7.71
2017-02-20T06:41:49.787Z,7.77
2017-02-20T06:42:49.785Z,7.75
2017-02-20T06:43:49.763Z,7.72
2017-02-20T06:44:49.768Z,7.71
2017-02-20T06:45:49.757Z,7.8
2017-02-20T06:46:49.739Z,7.75
2017-02-20T06:47:49.730Z,7.68
2017-02-20T06:48:49.724Z,7.85
2017-02-20T06:49:49.701Z,7.75
2017-02-20T06:50:49.696Z,7.86
2017-02-20T06:51:49.679Z,7.75
2017-02-20T06:52:49.671Z,7.79
2017-02-20T06:53:49.672Z,7.79
2017-02-20T06:54:49.665Z,7.77
2017-02-20T06:55:49.643Z,7.83
2017-02-20T06:56:49.637Z,7.87
2017-02-20T06:57:49.626Z,7.93
2017-02-20T06:58:49.605Z,8.01
2017-02-20T06:59:49.600Z,8
2017-02-20T07:00:49.592Z,7.98
2017-02-20T07:01:49.576Z,8.02
2017-02-20T07:02:49.574Z,8.1
2017-02-20T07:03:49.568Z,8.11
2017-02-20T07:04:49.547Z,8.1
2017-02-20T07:05:49.543Z,8.01
2017-02-20T07:06:49.540Z,8.01
2017-02-20T07:07:49.517Z,8.05
2017-02-20T07:08:49.515Z,8.02
2017-02-20T07:09:49.491Z,8.05
2017-02-20T07:10:49.483Z,8.1
2017-02-20T07:11:49.478Z,8.19
2017-02-20T07:12:49.461Z,8.28
2017-02-20T07:13:49.490Z,8.29
2017-02-20T07:14:49.457Z,8.36
2017-02-20T07:15:49.435Z,8.4
2017-02-20T07:16:49.442Z,8.34
2017-02-20T07:17:49.426Z,8.43
2017-02-20T07:18:49.408Z,8.3
2017-02-20T07:19:49.408Z,8.34
2017-02-20T07:20:49.397Z,8.29
2017-02-20T07:21:49.385Z,8.38
2017-02-20T07:22:49.361Z,8.33
2017-02-20T07:23:49.373Z,8.3
2017-02-20T07:24:49.349Z,8.28
2017-02-20T07:25:49.343Z,8.3
2017-02-20T07:26:49.336Z,8.3
2017-02-20T07:27:49.349Z,8.43
2017-02-20T07:28:49.310Z,8.36
2017-02-20T07:29:49.303Z,8.47
2017-02-20T07:30:49.300Z,8.4
2017-02-20T07:31:49.281Z,8.5
2017-02-20T07:32:49.276Z,8.53
2017-02-20T07:33:49.277Z,8.53
2017-02-20T07:34:49.254Z,8.55
2017-02-20T07:35:49.245Z,8.63
2017-02-20T07:36:49.243Z,8.59
2017-02-20T07:37:49.236Z,8.7
2017-02-20T07:38:49.234Z,8.7
2017-02-20T07:39:49.207Z,8.68
2017-02-20T07:40:49.214Z,8.76
2017-02-20T07:41:49.187Z,8.71
2017-02-20T07:42:49.197Z,8.66
2017-02-20T07:43:49.176Z,8.81
2017-02-20T07:44:49.166Z,8.81
2017-02-20T07:45:49.147Z,8.84
2017-02-20T07:46:49.147Z,8.95
2017-02-20T07:47:49.132Z,8.91
2017-02-20T07:48:49.121Z,8.86
2017-02-20T07:49:49.133Z,8.92
2017-02-20T07:50:49.096Z,8.98
2017-02-20T07:51:49.092Z,8.99
2017-02-20T07:52:49.109Z,8.95
2017-02-20T07:53:49.076Z,8.94
2017-02-20T07:54:49.071Z,8.94
2017-02-20T07:55:49.070Z,8.98
2017-02-20T07:56:49.068Z,9.1
2017-02-20T07:57:49.049Z,8.96
2017-02-20T07:58:49.032Z,9.04
2017-02-20T07:59:49.017Z,8.94
2017-02-20T08:00:49.004Z,8.99
2017-02-20T08:01:49.001Z,8.99
2017-02-20T08:02:49.008Z,9.05
2017-02-20T08:03:49.017Z,9.11
2017-02-20T08:04:48.969Z,9.11
2017-02-20T08:05:48.980Z,9.1
2017-02-20T08:06:48.966Z,9.18
2017-02-20T08:07:48.961Z,9.24
2017-02-20T08:08:48.930Z,9.21
2017-02-20T08:09:48.936Z,9.21
2017-02-20T08:10:48.918Z,9.13
2017-02-20T08:11:48.918Z,9.28
2017-02-20T08:12:48.932Z,9.36
2017-02-20T08:13:48.900Z,9.31
2017-02-20T08:14:48.887Z,9.33
2017-02-20T08:15:48.882Z,9.29
2017-02-20T08:16:48.887Z,9.33
2017-02-20T08:17:48.880Z,9.29
2017-02-20T08:18:48.852Z,9.2
2017-02-20T08:19:48.846Z,9.26
2017-02-20T08:20:48.833Z,9.28
2017-02-20T08:21:48.844Z,9.33
2017-02-20T08:22:48.824Z,9.32
2017-02-20T08:23:48.823Z,9.32
2017-02-20T08:24:48.792Z,9.31
2017-02-20T08:25:48.793Z,9.31
2017-02-20T08:26:48.778Z,9.35
2017-02-20T08:27:48.782Z,9.33
2017-02-20T08:28:48.377Z,9.32
2017-02-20T08:29:48.756Z,9.39
2017-02-20T08:30:48.744Z,9.46
2017-02-20T08:31:48.734Z,9.51
2017-02-20T08:32:48.734Z,9.47
2017-02-20T08:33:48.728Z,9.56
2017-02-20T08:34:48.708Z,9.54
2017-02-20T08:35:48.695Z,9.5
2017-02-20T08:36:48.687Z,9.48
2017-02-20T08:37:48.701Z,9.65
2017-02-20T08:38:48.687Z,9.65
2017-02-20T08:39:48.663Z,9.71
2017-02-20T08:40:48.677Z,9.71
2017-02-20T08:41:48.654Z,9.79
2017-02-20T08:42:48.627Z,9.84
2017-02-20T08:43:48.640Z,10.01
2017-02-20T08:44:48.627Z,10.02
2017-02-20T08:45:48.618Z,9.96
2017-02-20T08:46:48.213Z,10.05
2017-02-20T08:47:48.596Z,10.09
2017-02-20T08:48:48.586Z,10.26
2017-02-20T08:49:48.571Z,10.18
2017-02-20T08:50:48.571Z,10.23
2017-02-20T08:51:48.573Z,10.18
2017-02-20T08:52:48.171Z,10.22
2017-02-20T08:53:48.572Z,10.25
2017-02-20T08:54:48.544Z,10.23
2017-02-20T08:55:48.541Z,10.25
2017-02-20T08:56:48.124Z,10.33
2017-02-20T08:57:48.515Z,10.3
2017-02-20T08:58:48.498Z,10.32
2017-02-20T08:59:48.505Z,10.3
2017-02-20T09:00:48.491Z,10.34
2017-02-20T09:01:48.474Z,10.34
2017-02-20T09:02:48.474Z,10.36
2017-02-20T09:03:48.479Z,10.42
2017-02-20T09:04:48.454Z,10.34
2017-02-20T09:05:48.460Z,10.32
2017-02-20T09:06:48.458Z,10.33
2017-02-20T09:07:48.065Z,10.26
2017-02-20T09:08:48.448Z,10.36
2017-02-20T09:09:48.413Z,10.27
2017-02-20T09:10:48.412Z,10.25
2017-02-20T09:11:48.031Z,10.34
2017-02-20T09:12:48.395Z,10.34
2017-02-20T09:13:48.406Z,10.26
2017-02-20T09:14:48.373Z,10.34
2017-02-20T09:15:48.382Z,10.48
2017-02-20T09:16:48.378Z,10.38
2017-02-20T09:17:48.364Z,10.48
2017-02-20T09:18:47.957Z,10.56
2017-02-20T09:19:47.955Z,10.61
2017-02-20T09:20:48.325Z,10.66
2017-02-20T09:21:47.937Z,10.76
2017-02-20T09:22:47.930Z,10.76
2017-02-20T09:23:48.324Z,10.7
2017-02-20T09:24:48.320Z,10.78
2017-02-20T09:25:48.291Z,10.7
2017-02-20T09:26:48.283Z,10.7
2017-02-20T09:27:48.298Z,10.73
2017-02-20T09:28:48.293Z,10.82
2017-02-20T09:29:47.899Z,10.82
2017-02-20T09:30:48.262Z,10.89
2017-02-20T09:31:48.263Z,10.89
2017-02-20T09:32:47.851Z,10.92
2017-02-20T09:33:48.262Z,10.89
2017-02-20T09:34:48.239Z,10.91
2017-02-20T09:35:47.827Z,10.97
2017-02-20T09:36:48.257Z,11.02
2017-02-20T09:37:47.812Z,11.03
2017-02-20T09:38:47.810Z,11.17
2017-02-20T09:39:48.447Z,11.1
2017-02-20T09:40:47.813Z,11.18
2017-02-20T09:41:47.793Z,11.25
2017-02-20T09:42:47.785Z,11.33
2017-02-20T09:43:48.184Z,11.28
2017-02-20T09:44:47.778Z,11.39
2017-02-20T09:45:48.161Z,11.44
2017-02-20T09:46:47.763Z,11.49
2017-02-20T09:47:48.148Z,11.64
2017-02-20T09:48:47.755Z,11.64
2017-02-20T09:49:47.747Z,11.82
2017-02-20T09:50:47.744Z,11.76
2017-02-20T09:51:48.130Z,11.83
2017-02-20T09:52:47.746Z,11.76
2017-02-20T09:53:47.714Z,11.86
2017-02-20T09:54:48.097Z,11.8
2017-02-20T09:55:48.096Z,11.65
2017-02-20T09:56:48.094Z,11.72
2017-02-20T09:57:48.075Z,11.69
2017-02-20T09:58:48.078Z,11.72
2017-02-20T09:59:47.682Z,11.65
2017-02-20T10:00:48.074Z,11.82
2017-02-20T10:01:48.058Z,11.85
2017-02-20T10:02:48.053Z,11.86
2017-02-20T10:03:48.044Z,11.88
2017-02-20T10:04:47.642Z,11.82
2017-02-20T10:05:48.048Z,11.88
2017-02-20T10:06:48.021Z,11.83
2017-02-20T10:07:47.629Z,11.94
2017-02-20T10:08:48.015Z,11.95
2017-02-20T10:09:47.992Z,11.96
2017-02-20T10:10:48.012Z,12.05
2017-02-20T10:11:47.215Z,11.99
2017-02-20T10:12:47.991Z,11.91
2017-02-20T10:13:47.969Z,12.01
2017-02-20T10:14:47.972Z,11.98
2017-02-20T10:15:47.982Z,11.94
2017-02-20T10:16:47.968Z,12.02
2017-02-20T10:17:47.949Z,12.04
2017-02-20T10:18:47.958Z,11.98
2017-02-20T10:19:47.946Z,12.12
2017-02-20T10:20:47.951Z,12.13
2017-02-20T10:21:47.931Z,12.05
2017-02-20T10:22:47.935Z,12.12
2017-02-20T10:23:47.927Z,12.09
2017-02-20T10:24:47.925Z,12.14
2017-02-20T10:25:47.894Z,12.09
2017-02-20T10:26:47.910Z,12.1
2017-02-20T10:27:47.889Z,12.01
2017-02-20T10:28:47.900Z,12.12
2017-02-20T10:29:47.892Z,12.1
2017-02-20T10:30:47.882Z,11.99
2017-02-20T10:31:47.880Z,12.07
2017-02-20T10:32:47.866Z,12.12
2017-02-20T10:33:47.870Z,12.2
2017-02-20T10:34:47.847Z,12.2
2017-02-20T10:35:47.857Z,12.19
2017-02-20T10:36:47.853Z,12.34
2017-02-20T10:37:47.845Z,12.42
2017-02-20T10:38:47.835Z,12.59
2017-02-20T10:39:47.834Z,12.57
2017-02-20T10:40:47.803Z,12.7
2017-02-20T10:41:47.813Z,12.68
2017-02-20T10:42:47.807Z,12.62
2017-02-20T10:43:47.818Z,12.65
2017-02-20T10:44:47.786Z,12.57
2017-02-20T10:45:47.794Z,12.52
2017-02-20T10:46:47.799Z,12.49
2017-02-20T10:47:47.765Z,12.46
2017-02-20T10:48:47.770Z,12.42
2017-02-20T10:49:47.768Z,12.39
2017-02-20T10:50:47.758Z,12.35
2017-02-20T10:51:47.773Z,12.42
2017-02-20T10:52:47.745Z,12.32
2017-02-20T10:53:47.362Z,12.42
2017-02-20T10:54:47.732Z,12.46
2017-02-20T10:55:47.744Z,12.46
2017-02-20T10:56:47.731Z,12.49
2017-02-20T10:57:47.729Z,12.5
2017-02-20T10:58:47.718Z,12.47
2017-02-20T10:59:47.721Z,12.5
2017-02-20T11:00:47.301Z,12.59
2017-02-20T11:01:47.700Z,12.52
2017-02-20T11:02:47.696Z,12.57
2017-02-20T11:03:47.681Z,12.6
2017-02-20T11:04:47.681Z,12.62
2017-02-20T11:05:47.680Z,12.62
2017-02-20T11:06:47.678Z,12.62
2017-02-20T11:07:47.679Z,12.67
2017-02-20T11:08:47.658Z,12.71
2017-02-20T11:09:47.651Z,12.7
2017-02-20T11:10:47.658Z,12.7
2017-02-20T11:11:47.633Z,12.74
2017-02-20T11:12:47.638Z,12.71
2017-02-20T11:13:47.626Z,12.72
2017-02-20T11:14:47.632Z,12.75
2017-02-20T11:15:47.617Z,12.71
2017-02-20T11:16:47.617Z,12.85
2017-02-20T11:17:47.217Z,12.75
2017-02-20T11:18:47.204Z,12.83
2017-02-20T11:19:47.600Z,12.71
2017-02-20T11:20:47.194Z,12.72
2017-02-20T11:21:47.570Z,12.71
2017-02-20T11:22:47.575Z,12.72
2017-02-20T11:23:47.569Z,12.78
2017-02-20T11:24:47.563Z,12.77
2017-02-20T11:25:47.581Z,12.77
2017-02-20T11:26:47.566Z,12.71
2017-02-20T11:27:47.539Z,12.77
2017-02-20T11:28:47.575Z,12.74
2017-02-20T11:29:47.543Z,12.71
2017-02-20T11:30:47.134Z,12.82
2017-02-20T11:31:47.551Z,12.86
2017-02-20T11:32:47.528Z,12.85
2017-02-20T11:33:47.525Z,12.9
2017-02-20T11:34:47.514Z,12.89
2017-02-20T11:35:47.506Z,13
2017-02-20T11:36:47.496Z,12.96
2017-02-20T11:37:47.511Z,12.83
2017-02-20T11:38:47.505Z,12.79
2017-02-20T11:39:47.478Z,12.85
2017-02-20T11:40:47.475Z,12.77
2017-02-20T11:41:47.480Z,12.75
2017-02-20T11:42:47.463Z,12.72
2017-02-20T11:43:47.083Z,12.67
2017-02-20T11:44:47.453Z,12.6
2017-02-20T11:45:47.457Z,12.56
2017-02-20T11:46:47.460Z,12.46
2017-02-20T11:47:47.046Z,12.52
2017-02-20T11:48:47.434Z,12.45
2017-02-20T11:49:47.457Z,12.42
2017-02-20T11:50:47.444Z,12.46
2017-02-20T11:51:47.420Z,12.34
2017-02-20T11:52:47.423Z,12.39
2017-02-20T11:53:47.433Z,12.39
2017-02-20T11:54:46.611Z,12.32
2017-02-20T11:55:47.009Z,12.34
2017-02-20T11:56:47.387Z,12.34
2017-02-20T11:57:47.382Z,12.24
2017-02-20T11:58:47.385Z,12.27
2017-02-20T11:59:47.384Z,12.38
2017-02-20T12:00:47.375Z,12.41
2017-02-20T12:01:47.355Z,12.35
2017-02-20T12:02:47.362Z,12.42
2017-02-20T12:03:47.359Z,12.5
2017-02-20T12:04:46.938Z,12.38
2017-02-20T12:05:47.362Z,12.29
2017-02-20T12:06:47.323Z,12.23
2017-02-20T12:07:47.319Z,12.19
2017-02-20T12:08:47.316Z,12.2
2017-02-20T12:09:47.319Z,12.19
2017-02-20T12:10:47.298Z,12.07
2017-02-20T12:11:47.307Z,12.01
2017-02-20T12:12:47.290Z,11.95
2017-02-20T12:13:47.280Z,11.94
2017-02-20T12:14:47.288Z,12.01
2017-02-20T12:15:47.269Z,11.99
2017-02-20T12:16:47.273Z,11.9
2017-02-20T12:17:46.873Z,11.96
2017-02-20T12:18:47.239Z,11.91
2017-02-20T12:19:47.237Z,12.05
2017-02-20T12:20:47.250Z,11.99
2017-02-20T12:21:47.247Z,11.98
2017-02-20T12:22:47.229Z,11.94
2017-02-20T12:23:47.227Z,11.95
2017-02-20T12:24:47.239Z,11.95
2017-02-20T12:25:47.214Z,12.04
2017-02-20T12:26:47.209Z,12.05
2017-02-20T12:27:47.205Z,11.96
2017-02-20T12:28:47.194Z,12.04
2017-02-20T12:29:47.190Z,12.07
2017-02-20T12:30:47.169Z,12.02
2017-02-20T12:31:47.182Z,11.98
2017-02-20T12:32:47.179Z,12.04
2017-02-20T12:33:47.159Z,11.99
2017-02-20T12:34:47.154Z,11.98
2017-02-20T12:35:47.141Z,12.04
2017-02-20T12:36:47.133Z,12.02
2017-02-20T12:37:47.165Z,12.04
2017-02-20T12:38:47.146Z,12.21
2017-02-20T12:39:47.125Z,12.24
2017-02-20T12:40:47.119Z,12.29
2017-02-20T12:41:46.713Z,12.24
2017-02-20T12:42:47.126Z,12.19
2017-02-20T12:43:47.101Z,12.17
2017-02-20T12:44:47.076Z,12.14
2017-02-20T12:45:47.087Z,12.04
2017-02-20T12:46:47.076Z,12.01
2017-02-20T12:47:47.074Z,11.98
2017-02-20T12:48:47.079Z,12.02
2017-02-20T12:49:47.072Z,12.09
2017-02-20T12:50:47.046Z,12.02
2017-02-20T12:51:47.051Z,12.13
2017-02-20T12:52:47.033Z,12.2
2017-02-20T12:53:47.041Z,12.21
2017-02-20T12:54:47.021Z,12.24
2017-02-20T12:55:47.022Z,12.29
2017-02-20T12:56:47.014Z,12.41
2017-02-20T12:57:47.019Z,12.49
2017-02-20T12:58:47.000Z,12.54
2017-02-20T12:59:47.005Z,12.54
2017-02-20T13:00:46.983Z,12.57
2017-02-20T13:01:46.992Z,12.62
2017-02-20T13:02:46.970Z,12.65
2017-02-20T13:03:46.979Z,12.7
2017-02-20T13:04:46.953Z,12.82
2017-02-20T13:05:46.962Z,12.79
2017-02-20T13:06:46.980Z,12.83
2017-02-20T13:07:46.947Z,12.93
2017-02-20T13:08:46.991Z,13.03
2017-02-20T13:09:46.943Z,13.12
2017-02-20T13:10:46.934Z,13.15
2017-02-20T13:11:46.910Z,13.15
2017-02-20T13:12:46.925Z,13.17
2017-02-20T13:13:46.907Z,13.19